KGLE

Gainesville Municipal Airport

Gainesville, Texas, USA
METAR KGLE 170555Z AUTO 16011KT 10SM OVC005 06/05 A3005 RMK AO2 60028 T00580050 10070 20057 401611016
Observed Flight Rules
Dec-17 @ 05:55 UTC (26 minutes ago) Instrument Flight Rules
Wind Visibility Clouds
160° at 11 knots 10 miles
  • Overcast at 500' AGL
Temperatures Readings
Current 6°C / 43°F
Dewpoint 5°C / 41°F
Humidity 93%
Altimeter 30.05" Hg
Pressure 1018 hPa
Elevation 256
METAR KGLE 170555Z AUTO 16011KT 10SM OVC005 06/05 A3005 RMK AO2 60028 T00580050 10070 20057 401611016
Observed Flight Rules
Dec-17 @ 05:55 UTC
(26 minutes ago)
IFR
Wind Visibility
160° at 11 knots 10 miles
Clouds
  • Overcast at 500' AGL
Temperature Dewpoint
6°C / 43°F 5°C / 41°F
Humidity Altimeter Pressure
93% 30.05" Hg 1018 hPa